Time;durP1;ratioP1;P1;durP2;ratioP2;P2;SDS_P1;SDS_P2;PMS_P1;PMS_P2;Temp;Humidity;BMP_temperature;BMP_pressure;BME280_temperature;BME280_humidity;BME280_pressure;Samples;Min_cycle;Max_cycle;Signal;HPM_P1;HPM_P2
2022/08/22 00:01:18;;;;;;;6.30;2.90;;;19.50;99.90;;;;;;4993004;28;20192;-68
2022/08/22 00:03:53;;;;;;;6.65;1.73;;;19.50;99.90;;;;;;5002954;28;20670;-70
2022/08/22 00:06:38;;;;;;;1.92;1.60;;;19.50;99.90;;;;;;4998924;28;20115;-68
2022/08/22 00:09:46;;;;;;;3.20;1.52;;;19.60;99.90;;;;;;4997693;28;20574;-68
2022/08/22 00:12:24;;;;;;;3.10;1.10;;;19.60;99.90;;;;;;4988934;28;20092;-67
2022/08/22 00:15:13;;;;;;;4.50;1.42;;;19.50;99.90;;;;;;4996422;28;20104;-69
2022/08/22 00:18:15;;;;;;;4.35;1.88;;;19.50;99.90;;;;;;5001758;28;20056;-69
2022/08/22 00:20:58;;;;;;;3.05;1.40;;;19.50;99.90;;;;;;5001894;28;20061;-67
2022/08/22 00:24:06;;;;;;;2.45;1.38;;;19.60;99.90;;;;;;4998348;28;20137;-68
2022/08/22 00:26:43;;;;;;;3.17;1.55;;;19.50;99.90;;;;;;4997568;28;20452;-67
2022/08/22 00:29:16;;;;;;;2.95;1.27;;;19.50;99.90;;;;;;5005649;28;20046;-68
2022/08/22 00:31:53;;;;;;;2.30;1.90;;;19.50;99.90;;;;;;5004625;28;20126;-70
2022/08/22 00:34:33;;;;;;;11.02;2.00;;;19.50;99.90;;;;;;5000851;28;20491;-68
2022/08/22 00:37:15;;;;;;;3.22;1.67;;;19.50;99.90;;;;;;4998724;28;20113;-68
2022/08/22 00:39:43;;;;;;;2.75;1.35;;;19.50;99.90;;;;;;5000975;28;20057;-68
2022/08/22 00:42:44;;;;;;;5.32;1.73;;;19.50;99.90;;;;;;4996761;28;20074;-68
2022/08/22 00:45:35;;;;;;;2.88;2.67;;;19.60;99.90;;;;;;5001964;28;20112;-68
2022/08/22 00:48:15;;;;;;;2.55;1.60;;;19.50;99.90;;;;;;4998087;28;20468;-75
2022/08/22 00:51:08;;;;;;;5.15;1.83;;;19.60;99.90;;;;;;4997446;28;20145;-68
2022/08/22 00:53:57;;;;;;;2.45;1.42;;;19.50;99.90;;;;;;5000339;28;20476;-69
2022/08/22 00:56:49;;;;;;;5.47;1.80;;;19.50;99.90;;;;;;4993154;28;20550;-68
2022/08/22 00:59:19;;;;;;;2.45;1.63;;;19.50;99.90;;;;;;4995731;28;20073;-71
2022/08/22 01:02:36;;;;;;;2.03;1.63;;;19.50;99.90;;;;;;4999796;28;20060;-68
2022/08/22 01:05:05;;;;;;;2.30;1.27;;;19.50;99.90;;;;;;4957314;28;20161;-68
2022/08/22 01:07:36;;;;;;;;;;;19.40;99.90;;;;;;4957604;28;20297;-72
2022/08/22 01:10:25;;;;;;;2.15;1.13;;;19.50;99.90;;;;;;4982032;28;19921;-71
2022/08/22 01:13:04;;;;;;;2.50;1.42;;;19.50;99.90;;;;;;5001555;28;20129;-68
2022/08/22 01:15:34;;;;;;;2.83;1.52;;;19.50;99.90;;;;;;4999795;28;20471;-68
2022/08/22 01:18:19;;;;;;;2.53;1.52;;;19.50;99.90;;;;;;4995384;28;20054;-68
2022/08/22 01:20:58;;;;;;;1.92;1.45;;;19.50;99.90;;;;;;4993773;28;20137;-68
2022/08/22 01:23:45;;;;;;;2.72;1.65;;;19.50;99.90;;;;;;4997966;28;20092;-68
2022/08/22 01:26:39;;;;;;;3.35;1.17;;;19.40;99.90;;;;;;4993659;28;20115;-68
2022/08/22 01:29:15;;;;;;;1.98;1.30;;;19.40;99.90;;;;;;5000314;28;20085;-68
2022/08/22 01:32:20;;;;;;;3.05;1.52;;;19.40;99.90;;;;;;4997678;28;20081;-68
2022/08/22 01:34:56;;;;;;;1.67;1.17;;;19.30;99.90;;;;;;4993049;28;20085;-68
2022/08/22 01:37:31;;;;;;;2.20;1.10;;;19.30;99.90;;;;;;4995764;28;20141;-68
2022/08/22 01:40:28;;;;;;;5.40;1.95;;;19.30;99.90;;;;;;4993869;28;20128;-69
2022/08/22 01:43:09;;;;;;;4.00;1.65;;;19.30;99.90;;;;;;4994434;28;20077;-69
2022/08/22 01:45:53;;;;;;;1.70;1.30;;;19.30;99.90;;;;;;4991238;28;20166;-71
2022/08/22 01:48:37;;;;;;;6.45;1.90;;;19.20;99.90;;;;;;4986915;28;20100;-69
2022/08/22 01:51:35;;;;;;;5.80;2.63;;;19.20;99.90;;;;;;5014106;28;20077;-69
2022/08/22 01:54:12;;;;;;;2.63;2.38;;;19.20;99.90;;;;;;5000612;28;20046;-69
2022/08/22 01:56:42;;;;;;;4.30;1.90;;;19.20;99.90;;;;;;4986758;28;20066;-68
2022/08/22 01:59:22;;;;;;;3.58;1.38;;;19.20;99.90;;;;;;4995685;28;20070;-68
2022/08/22 02:02:17;;;;;;;4.60;1.55;;;19.20;99.90;;;;;;4994909;28;20114;-69
2022/08/22 02:04:53;;;;;;;2.88;2.13;;;19.10;99.90;;;;;;5001515;28;20093;-68
2022/08/22 02:07:40;;;;;;;4.13;1.67;;;19.10;99.90;;;;;;4993807;28;20136;-69
2022/08/22 02:10:20;;;;;;;4.53;1.52;;;19.10;99.90;;;;;;4990704;28;20042;-68
2022/08/22 02:13:07;;;;;;;2.08;1.23;;;19.10;99.90;;;;;;4994112;28;20141;-69
2022/08/22 02:15:47;;;;;;;3.80;1.85;;;19.10;99.90;;;;;;5000979;28;20093;-68
2022/08/22 02:18:26;;;;;;;2.88;1.27;;;19.10;99.90;;;;;;4991719;28;20039;-68
2022/08/22 02:21:07;;;;;;;3.25;1.40;;;19.00;99.90;;;;;;4991997;28;20054;-68
2022/08/22 02:23:49;;;;;;;1.63;1.30;;;19.00;99.90;;;;;;5000992;28;20436;-68
2022/08/22 02:26:39;;;;;;;6.65;2.45;;;19.00;99.90;;;;;;4997020;28;20177;-70
2022/08/22 02:29:12;;;;;;;5.70;2.50;;;19.00;99.90;;;;;;4996275;28;20133;-68
2022/08/22 02:32:01;;;;;;;3.63;1.20;;;19.00;99.90;;;;;;4990866;28;20070;-68
2022/08/22 02:34:47;;;;;;;0.93;0.93;;;18.90;99.90;;;;;;4992431;28;20545;-69
2022/08/22 02:37:36;;;;;;;3.80;1.33;;;18.90;99.90;;;;;;4996436;28;20042;-68
2022/08/22 02:40:20;;;;;;;2.97;1.30;;;18.90;99.90;;;;;;4990827;28;20585;-70
2022/08/22 02:43:22;;;;;;;3.45;1.20;;;18.90;99.90;;;;;;4993644;28;20077;-68
2022/08/22 02:46:04;;;;;;;2.15;1.50;;;18.90;99.90;;;;;;5000171;28;20504;-68
2022/08/22 02:48:51;;;;;;;3.85;2.40;;;18.80;99.90;;;;;;4993031;28;20046;-69
2022/08/22 02:51:32;;;;;;;4.55;1.40;;;18.80;99.90;;;;;;4989295;28;20384;-68
2022/08/22 02:54:20;;;;;;;4.10;1.33;;;18.80;99.90;;;;;;4996718;28;20129;-69
2022/08/22 02:56:56;;;;;;;7.47;2.15;;;18.80;99.90;;;;;;4992331;28;20077;-69
2022/08/22 02:59:37;;;;;;;5.15;1.50;;;18.70;99.90;;;;;;4998260;28;20177;-69
2022/08/22 03:02:34;;;;;;;2.83;1.83;;;18.70;99.90;;;;;;4992243;28;20068;-70
2022/08/22 03:05:29;;;;;;;3.97;1.63;;;18.70;99.90;;;;;;5002291;28;20061;-69
2022/08/22 03:08:15;;;;;;;3.22;1.50;;;18.70;99.90;;;;;;4997829;28;20065;-68
2022/08/22 03:11:26;;;;;;;4.40;1.77;;;18.60;99.90;;;;;;4999040;28;20113;-69
2022/08/22 03:14:17;;;;;;;2.05;1.80;;;18.60;99.90;;;;;;4993947;28;20050;-68
2022/08/22 03:16:54;;;;;;;3.00;1.40;;;18.60;99.90;;;;;;4995305;28;20053;-69
2022/08/22 03:20:00;;;;;;;3.40;2.15;;;18.50;99.90;;;;;;5001828;28;20144;-68
2022/08/22 03:22:45;;;;;;;6.20;1.85;;;18.50;99.90;;;;;;5005427;28;20046;-68
2022/08/22 03:25:22;;;;;;;3.33;1.52;;;18.50;99.90;;;;;;4997065;28;20054;-69
2022/08/22 03:27:58;;;;;;;3.08;1.52;;;18.50;99.90;;;;;;4998382;28;20060;-70
2022/08/22 03:30:47;;;;;;;2.45;1.98;;;18.50;99.90;;;;;;4997768;28;20131;-69
2022/08/22 03:33:26;;;;;;;4.15;2.08;;;18.50;99.90;;;;;;4999862;28;20411;-69
2022/08/22 03:36:02;;;;;;;4.00;1.92;;;18.50;99.90;;;;;;5003224;28;20084;-69
2022/08/22 03:38:46;;;;;;;4.55;2.30;;;18.50;99.90;;;;;;5004673;28;20472;-70
2022/08/22 03:41:35;;;;;;;2.80;1.42;;;18.50;99.90;;;;;;4998511;28;20104;-68
2022/08/22 03:44:29;;;;;;;7.35;2.05;;;18.50;99.90;;;;;;4998622;28;20054;-69
2022/08/22 03:47:23;;;;;;;4.00;2.20;;;18.40;99.90;;;;;;5004449;28;20075;-69
2022/08/22 03:50:31;;;;;;;13.30;2.35;;;18.40;99.90;;;;;;5004384;28;20672;-70
2022/08/22 03:53:28;;;;;;;4.78;2.17;;;18.50;99.90;;;;;;4999030;28;20479;-69
2022/08/22 03:56:23;;;;;;;3.45;1.58;;;18.40;99.90;;;;;;4991822;28;20136;-67
2022/08/22 03:59:02;;;;;;;4.50;1.80;;;18.30;99.90;;;;;;5002374;28;20061;-70
2022/08/22 04:02:16;;;;;;;8.70;2.28;;;18.40;99.90;;;;;;5001706;28;20050;-68
2022/08/22 04:05:22;;;;;;;3.38;1.83;;;18.40;99.90;;;;;;4974307;28;20046;-69
2022/08/22 04:08:20;;;;;;;3.22;1.77;;;18.30;99.90;;;;;;4999801;28;20629;-69
2022/08/22 04:11:33;;;;;;;2.83;1.98;;;18.30;99.90;;;;;;4995442;28;20042;-69
2022/08/22 04:14:38;;;;;;;3.08;2.38;;;18.30;99.90;;;;;;4987814;28;20848;-69
2022/08/22 04:17:33;;;;;;;5.53;2.20;;;18.30;99.90;;;;;;4992996;28;20833;-69
2022/08/22 04:20:24;;;;;;;7.93;2.35;;;18.30;99.90;;;;;;4997229;28;20140;-69
2022/08/22 04:23:08;;;;;;;5.43;2.67;;;18.30;99.90;;;;;;5002615;28;20479;-71
2022/08/22 04:25:40;;;;;;;9.77;2.75;;;18.30;99.90;;;;;;4982488;28;20132;-69
2022/08/22 04:28:23;;;;;;;9.82;4.15;;;18.30;99.90;;;;;;4995817;28;20471;-70
2022/08/22 04:31:10;;;;;;;6.90;1.90;;;18.20;99.90;;;;;;4994901;28;20113;-68
2022/08/22 04:33:48;;;;;;;4.97;2.17;;;18.20;99.90;;;;;;4994341;28;20121;-69
2022/08/22 04:36:21;;;;;;;6.35;4.55;;;18.20;99.90;;;;;;5000038;28;20070;-68
2022/08/22 04:38:51;;;;;;;4.30;2.53;;;18.20;99.90;;;;;;4996984;28;20076;-70
2022/08/22 04:41:45;;;;;;;3.53;1.33;;;18.20;99.90;;;;;;4999575;28;20105;-68
2022/08/22 04:44:26;;;;;;;3.95;2.75;;;18.20;99.90;;;;;;4998876;28;20054;-68
2022/08/22 04:47:04;;;;;;;8.48;2.88;;;18.20;99.90;;;;;;5000526;28;20215;-68
2022/08/22 04:49:33;;;;;;;4.65;2.10;;;18.10;99.90;;;;;;5000114;28;20135;-69
2022/08/22 04:52:34;;;;;;;1.92;1.65;;;18.10;99.90;;;;;;4999191;28;20418;-69
2022/08/22 04:55:24;;;;;;;1.80;1.17;;;18.10;99.90;;;;;;4999635;28;20050;-68
2022/08/22 04:58:03;;;;;;;1.92;1.52;;;18.10;99.90;;;;;;4998773;28;20521;-68
2022/08/22 05:01:15;;;;;;;4.50;2.03;;;18.10;99.90;;;;;;4991962;28;20112;-68
2022/08/22 05:03:51;;;;;;;2.45;0.93;;;18.10;99.90;;;;;;4997921;28;20048;-68
2022/08/22 05:06:23;;;;;;;3.08;1.13;;;18.10;99.90;;;;;;4995846;28;20076;-69
2022/08/22 05:08:50;;;;;;;4.70;1.67;;;18.10;99.90;;;;;;5001430;28;20053;-68
2022/08/22 05:11:22;;;;;;;2.72;1.40;;;18.10;99.90;;;;;;5001694;28;20239;-68
2022/08/22 05:14:12;;;;;;;2.45;1.65;;;18.10;99.90;;;;;;5000670;28;20668;-69
2022/08/22 05:16:42;;;;;;;2.55;1.40;;;18.10;99.90;;;;;;4984307;28;20440;-69
2022/08/22 05:19:33;;;;;;;3.08;1.55;;;18.10;99.90;;;;;;4996690;28;20124;-69
2022/08/22 05:22:02;;;;;;;8.30;2.03;;;18.10;99.90;;;;;;4990010;28;20233;-68
2022/08/22 05:24:37;;;;;;;2.58;1.20;;;18.10;99.90;;;;;;4994015;28;20065;-68
2022/08/22 05:27:29;;;;;;;9.88;3.10;;;18.10;99.90;;;;;;4991121;28;20149;-68
2022/08/22 05:31:37;;;;;;;2.90;1.58;;;18.10;99.90;;;;;;5099534;27;20370;-66
2022/08/22 05:34:12;;;;;;;2.38;1.60;;;18.10;99.90;;;;;;5096014;27;20454;-65
2022/08/22 05:36:44;;;;;;;4.82;1.30;;;18.10;99.90;;;;;;5099498;28;21117;-65
2022/08/22 05:39:16;;;;;;;6.20;1.65;;;18.10;99.90;;;;;;5098799;28;20043;-66
2022/08/22 05:41:44;;;;;;;8.98;2.20;;;18.10;99.90;;;;;;5097734;28;20040;-66
2022/08/22 05:44:36;;;;;;;3.90;1.60;;;18.10;99.90;;;;;;5096337;28;20054;-67
2022/08/22 05:47:12;;;;;;;5.07;1.77;;;18.20;99.90;;;;;;5094335;28;20620;-67
2022/08/22 05:50:01;;;;;;;12.82;2.17;;;18.20;99.90;;;;;;5099372;28;20443;-66
2022/08/22 05:52:45;;;;;;;3.85;1.50;;;18.20;99.90;;;;;;5100043;28;20120;-66
2022/08/22 05:55:29;;;;;;;3.97;2.42;;;18.30;99.90;;;;;;5100467;28;20685;-67
2022/08/22 05:58:50;;;;;;;6.07;1.63;;;18.30;99.90;;;;;;5097409;28;20071;-68
2022/08/22 06:01:23;;;;;;;4.32;1.45;;;18.30;99.90;;;;;;5031765;28;20073;-67
2022/08/22 06:03:59;;;;;;;4.78;2.95;;;18.40;99.90;;;;;;5031757;28;20056;-68
2022/08/22 06:06:28;;;;;;;10.35;2.33;;;18.40;99.90;;;;;;5050138;28;20130;-68
2022/08/22 06:09:23;;;;;;;3.50;1.70;;;18.40;99.90;;;;;;5075901;28;20806;-69
2022/08/22 06:12:12;;;;;;;3.90;1.35;;;18.40;99.90;;;;;;5095773;28;20380;-69
2022/08/22 06:15:06;;;;;;;5.45;1.65;;;18.40;99.90;;;;;;5091595;28;20037;-67
2022/08/22 06:18:00;;;;;;;2.75;1.45;;;18.50;99.90;;;;;;5076551;28;20066;-69
2022/08/22 06:20:41;;;;;;;4.60;2.30;;;18.50;99.90;;;;;;5094993;27;20087;-68
2022/08/22 06:23:11;;;;;;;;;;;18.50;99.90;;;;;;5097945;28;20066;-68
2022/08/22 06:25:42;;;;;;;2.65;1.75;;;18.50;99.90;;;;;;5098472;28;19976;-69
2022/08/22 06:28:16;;;;;;;4.68;1.85;;;18.40;99.90;;;;;;5096577;28;20044;-69
2022/08/22 06:30:45;;;;;;;5.50;1.77;;;18.50;99.90;;;;;;5096950;27;20071;-68
2022/08/22 06:33:17;;;;;;;5.13;1.67;;;18.50;99.90;;;;;;5100266;28;20068;-69
2022/08/22 06:39:05;;;;;;;10.25;2.55;;;18.50;99.90;;;;;;5097996;28;20855;-70
2022/08/22 06:41:43;;;;;;;8.02;2.45;;;18.50;99.90;;;;;;5091338;28;20147;-68
2022/08/22 06:44:17;;;;;;;1.88;1.17;;;18.60;99.90;;;;;;5081096;28;20059;-68
2022/08/22 06:46:46;;;;;;;3.63;1.33;;;18.50;99.90;;;;;;5086994;28;20124;-68
2022/08/22 06:49:14;;;;;;;3.75;1.27;;;18.60;99.90;;;;;;5055356;28;20056;-68
2022/08/22 06:51:44;;;;;;;3.60;1.50;;;18.60;99.90;;;;;;5081225;28;20047;-67
2022/08/22 06:54:17;;;;;;;6.45;1.23;;;18.60;99.90;;;;;;5082838;28;20156;-67
2022/08/22 06:56:47;;;;;;;3.58;1.65;;;18.60;99.90;;;;;;5085795;28;20044;-68
2022/08/22 06:59:17;;;;;;;2.40;1.63;;;18.60;99.90;;;;;;5084929;28;20225;-69
2022/08/22 07:02:00;;;;;;;3.05;1.50;;;18.60;99.90;;;;;;5084882;28;20052;-67
2022/08/22 07:04:27;;;;;;;6.45;2.10;;;18.60;99.90;;;;;;5083888;28;20111;-67
2022/08/22 07:06:57;;;;;;;4.90;1.67;;;18.60;99.90;;;;;;5086231;28;20068;-68
2022/08/22 07:09:33;;;;;;;3.00;2.15;;;18.60;99.90;;;;;;5083037;28;20103;-67
2022/08/22 07:12:09;;;;;;;3.03;1.90;;;18.60;99.90;;;;;;5083841;28;20043;-68
2022/08/22 07:14:48;;;;;;;4.22;1.40;;;18.60;99.90;;;;;;5079986;28;20136;-68
2022/08/22 07:17:24;;;;;;;6.25;1.70;;;18.60;99.90;;;;;;5081947;28;20052;-70
2022/08/22 07:20:22;;;;;;;3.42;1.45;;;18.60;99.90;;;;;;5083919;28;20048;-68
2022/08/22 07:22:58;;;;;;;3.72;1.15;;;18.60;99.90;;;;;;5083193;28;20055;-68
2022/08/22 07:25:27;;;;;;;4.65;1.42;;;18.60;99.90;;;;;;5083768;28;20080;-68
2022/08/22 07:28:21;;;;;;;3.05;1.30;;;18.60;99.90;;;;;;5085937;28;20071;-68
2022/08/22 07:31:23;;;;;;;4.68;1.55;;;18.70;99.90;;;;;;5081875;28;20047;-68
2022/08/22 07:33:54;;;;;;;4.43;1.33;;;18.70;99.90;;;;;;5081021;28;20052;-67
2022/08/22 07:36:38;;;;;;;3.83;0.93;;;18.70;99.90;;;;;;5078542;28;20068;-68
2022/08/22 07:39:26;;;;;;;3.92;1.25;;;18.70;99.90;;;;;;5083485;28;20107;-67
2022/08/22 07:42:14;;;;;;;10.05;1.80;;;18.70;99.90;;;;;;5083887;28;20349;-68
2022/08/22 07:44:59;;;;;;;2.38;1.88;;;18.70;99.90;;;;;;5055028;28;20048;-70
2022/08/22 07:47:51;;;;;;;8.13;1.30;;;18.80;99.90;;;;;;5085244;28;20169;-68
2022/08/22 07:50:25;;;;;;;3.05;1.10;;;18.80;99.90;;;;;;5079936;28;20047;-69
2022/08/22 07:52:57;;;;;;;6.97;2.15;;;18.80;99.90;;;;;;5081491;28;20032;-67
2022/08/22 07:55:25;;;;;;;6.70;1.52;;;18.80;99.90;;;;;;5082031;28;20109;-68
2022/08/22 07:57:56;;;;;;;10.60;2.55;;;18.70;99.90;;;;;;5081306;28;20192;-69
2022/08/22 08:00:25;;;;;;;7.53;1.85;;;18.70;99.90;;;;;;5080408;28;20060;-68
2022/08/22 08:02:57;;;;;;;5.35;1.30;;;18.80;99.90;;;;;;5084589;28;20044;-68
2022/08/22 08:05:28;;;;;;;4.93;1.42;;;18.70;99.90;;;;;;5077045;28;20107;-67
2022/08/22 08:07:55;;;;;;;3.90;1.75;;;18.80;99.90;;;;;;5084953;28;20558;-68
2022/08/22 08:10:31;;;;;;;5.57;1.48;;;18.80;99.90;;;;;;5082784;28;20064;-67
2022/08/22 08:13:21;;;;;;;6.47;1.35;;;18.90;99.90;;;;;;5085034;28;20042;-68
2022/08/22 08:15:49;;;;;;;5.88;2.13;;;18.90;99.90;;;;;;5074901;28;20101;-68
2022/08/22 08:18:20;;;;;;;6.82;1.33;;;19.00;99.90;;;;;;5083750;28;20083;-68
2022/08/22 08:21:01;;;;;;;5.85;1.10;;;18.90;99.90;;;;;;5082150;28;20048;-68
2022/08/22 08:23:28;;;;;;;;;;;18.90;99.90;;;;;;5079751;28;20040;-67
2022/08/22 08:26:19;;;;;;;5.55;1.70;;;19.00;99.90;;;;;;5084650;28;19973;-68
2022/08/22 08:28:50;;;;;;;4.00;1.48;;;18.90;99.90;;;;;;5084141;28;20051;-69
2022/08/22 08:31:34;;;;;;;8.68;1.20;;;19.00;99.90;;;;;;5065957;28;20040;-68
2022/08/22 08:34:09;;;;;;;4.55;1.80;;;19.00;99.90;;;;;;5059004;28;20106;-70
2022/08/22 08:36:47;;;;;;;4.18;1.02;;;19.00;99.90;;;;;;5064060;28;20702;-68
2022/08/22 08:39:32;;;;;;;4.32;1.25;;;19.00;99.90;;;;;;5054356;28;20110;-69
2022/08/22 08:42:17;;;;;;;3.58;0.93;;;19.00;99.90;;;;;;5060983;28;20657;-68
2022/08/22 08:45:06;;;;;;;6.65;1.27;;;18.90;99.90;;;;;;5060078;28;20079;-67
2022/08/22 08:47:44;;;;;;;2.90;1.23;;;19.00;99.90;;;;;;5059523;28;20385;-69
2022/08/22 08:50:42;;;;;;;3.65;1.85;;;19.00;99.90;;;;;;5057983;28;20048;-69
2022/08/22 08:53:12;;;;;;;5.43;1.58;;;19.00;99.90;;;;;;5060191;28;20044;-70
2022/08/22 08:56:00;;;;;;;3.55;1.88;;;19.00;99.90;;;;;;5062868;28;20044;-68
2022/08/22 08:58:42;;;;;;;4.80;2.38;;;18.90;99.90;;;;;;5057556;28;20124;-69
2022/08/22 09:01:41;;;;;;;2.38;1.38;;;18.90;99.90;;;;;;5060622;28;20062;-68
2022/08/22 09:04:37;;;;;;;1.38;0.80;;;18.70;99.90;;;;;;5022546;28;20052;-69
2022/08/22 09:07:32;;;;;;;6.00;3.15;;;18.70;99.90;;;;;;5077463;28;20873;-68
2022/08/22 09:10:28;;;;;;;5.95;1.27;;;18.70;99.90;;;;;;5054224;28;20048;-71
2022/08/22 09:13:31;;;;;;;8.13;2.08;;;18.60;99.90;;;;;;5063672;28;20044;-70
2022/08/22 09:16:26;;;;;;;3.80;1.40;;;18.60;99.90;;;;;;5060131;28;20151;-70
2022/08/22 09:19:12;;;;;;;1.38;1.00;;;18.70;99.90;;;;;;5031411;28;20041;-68
2022/08/22 09:22:03;;;;;;;3.35;1.30;;;18.80;99.90;;;;;;5062864;28;20422;-72
2022/08/22 09:24:50;;;;;;;13.40;2.67;;;18.80;99.90;;;;;;5062053;28;20053;-68
2022/08/22 09:27:24;;;;;;;8.48;2.15;;;18.80;99.90;;;;;;5055872;28;20135;-70
2022/08/22 09:30:01;;;;;;;3.25;1.10;;;18.80;99.90;;;;;;5062641;28;20052;-70
2022/08/22 09:33:14;;;;;;;7.10;1.90;;;18.80;99.90;;;;;;5057251;28;20041;-68
2022/08/22 09:36:13;;;;;;;8.15;1.50;;;18.80;99.90;;;;;;5000611;28;20050;-69
2022/08/22 09:38:56;;;;;;;4.20;1.73;;;18.90;99.90;;;;;;4999328;28;20042;-68
2022/08/22 09:41:23;;;;;;;2.90;1.20;;;18.90;99.90;;;;;;5044017;28;20110;-68
2022/08/22 09:44:15;;;;;;;6.88;1.58;;;19.10;99.90;;;;;;5063269;28;20032;-68
2022/08/22 09:46:44;;;;;;;3.08;0.98;;;19.10;99.90;;;;;;5057264;28;20048;-71
2022/08/22 09:49:16;;;;;;;5.90;1.08;;;19.10;99.90;;;;;;5072591;28;20072;-69
2022/08/22 09:52:04;;;;;;;3.08;1.20;;;19.10;99.90;;;;;;5063388;28;20524;-70
2022/08/22 09:55:26;;;;;;;2.55;1.00;;;19.10;99.90;;;;;;5057981;28;20056;-70
2022/08/22 09:58:18;;;;;;;3.17;1.20;;;19.20;99.90;;;;;;5058496;28;20036;-72
2022/08/22 10:00:57;;;;;;;3.85;1.13;;;19.30;99.90;;;;;;5059959;28;20056;-67
2022/08/22 10:04:02;;;;;;;4.55;1.20;;;19.30;99.90;;;;;;5062934;28;20052;-68
2022/08/22 10:06:44;;;;;;;4.72;1.50;;;19.50;99.90;;;;;;5061706;28;20064;-69
2022/08/22 10:09:22;;;;;;;3.60;1.55;;;19.40;99.90;;;;;;5062920;28;20376;-68
2022/08/22 10:12:11;;;;;;;1.88;1.33;;;19.30;99.90;;;;;;5052808;28;20666;-70
2022/08/22 10:14:54;;;;;;;4.07;2.10;;;19.50;99.90;;;;;;5061530;28;20044;-71
2022/08/22 10:17:31;;;;;;;4.30;1.30;;;19.60;99.90;;;;;;5064743;28;20076;-72
2022/08/22 10:20:10;;;;;;;5.25;1.00;;;19.60;99.90;;;;;;5054807;28;20037;-69
2022/08/22 10:22:57;;;;;;;5.18;2.03;;;19.40;99.90;;;;;;5059991;28;20421;-68
2022/08/22 10:25:43;;;;;;;3.45;1.10;;;19.40;99.90;;;;;;5062378;28;20064;-68
2022/08/22 10:28:13;;;;;;;3.88;1.10;;;19.50;99.90;;;;;;5060931;28;20179;-68
2022/08/22 10:31:05;;;;;;;7.63;2.10;;;19.60;99.90;;;;;;5064155;28;20036;-68
2022/08/22 10:34:00;;;;;;;4.18;1.38;;;19.70;99.90;;;;;;5066584;28;20047;-69
2022/08/22 10:36:35;;;;;;;5.32;1.17;;;19.70;99.90;;;;;;5056705;28;20040;-68
2022/08/22 10:39:05;;;;;;;5.28;1.52;;;19.70;99.90;;;;;;5066205;28;20044;-72
2022/08/22 10:41:42;;;;;;;3.83;0.90;;;19.70;99.90;;;;;;5065119;28;20044;-71
2022/08/22 10:44:28;;;;;;;1.83;0.68;;;19.70;99.90;;;;;;5065419;28;20043;-68
2022/08/22 10:47:03;;;;;;;3.67;0.98;;;19.80;99.90;;;;;;5063819;28;20462;-70
2022/08/22 10:49:43;;;;;;;4.55;0.98;;;19.90;99.90;;;;;;5065562;28;20109;-70
2022/08/22 10:52:18;;;;;;;5.90;1.63;;;19.90;99.90;;;;;;5057450;28;20518;-71
2022/08/22 10:54:50;;;;;;;4.85;1.17;;;19.90;99.90;;;;;;5066048;28;20060;-68
2022/08/22 10:57:37;;;;;;;6.93;1.10;;;19.80;99.90;;;;;;5063149;28;20131;-69
2022/08/22 11:00:11;;;;;;;5.53;1.00;;;19.90;99.90;;;;;;5059702;28;20118;-70
2022/08/22 11:03:03;;;;;;;6.28;2.55;;;20.00;99.90;;;;;;5085894;28;20040;-71
2022/08/22 11:05:46;;;;;;;5.25;1.33;;;19.80;99.90;;;;;;5085468;28;20044;-71
2022/08/22 11:08:49;;;;;;;4.68;0.80;;;19.90;99.90;;;;;;5081735;28;20066;-68
2022/08/22 11:11:28;;;;;;;3.58;0.90;;;20.00;99.90;;;;;;5085169;28;20036;-70
2022/08/22 11:14:26;;;;;;;3.28;0.77;;;19.90;99.90;;;;;;5086306;28;20100;-74
2022/08/22 11:17:05;;;;;;;2.90;1.85;;;19.90;99.90;;;;;;5064998;28;20496;-69
2022/08/22 11:20:31;;;;;;;4.72;1.52;;;20.10;99.90;;;;;;5062893;28;20095;-68
2022/08/22 11:23:19;;;;;;;4.00;1.17;;;20.20;99.90;;;;;;5041060;28;20113;-72
2022/08/22 11:26:21;;;;;;;4.82;0.88;;;20.30;99.90;;;;;;5060190;28;20049;-71
2022/08/22 11:29:25;;;;;;;4.00;1.00;;;20.40;99.90;;;;;;5062274;28;20410;-70
2022/08/22 11:31:55;;;;;;;0.90;0.90;;;20.40;99.90;;;;;;5064870;28;20041;-70
2022/08/22 11:34:48;;;;;;;4.50;1.50;;;20.40;99.90;;;;;;5064127;28;20062;-72
2022/08/22 11:37:27;;;;;;;4.32;1.20;;;20.50;99.90;;;;;;5061888;28;20555;-70
2022/08/22 11:40:34;;;;;;;2.58;1.17;;;20.30;99.90;;;;;;5057249;28;20102;-68
2022/08/22 11:43:30;;;;;;;7.70;2.38;;;20.40;99.90;;;;;;5060590;28;20043;-69
2022/08/22 11:46:17;;;;;;;2.40;0.80;;;20.20;99.90;;;;;;5061745;28;20040;-71
2022/08/22 11:49:14;;;;;;;5.50;1.00;;;20.20;99.90;;;;;;5064606;28;20367;-72
2022/08/22 11:51:56;;;;;;;2.45;0.90;;;20.20;99.90;;;;;;5056604;28;20044;-69
2022/08/22 11:54:48;;;;;;;4.97;1.20;;;20.50;99.90;;;;;;5060448;28;20056;-70
2022/08/22 11:57:46;;;;;;;7.68;1.13;;;20.70;99.90;;;;;;5059114;28;20037;-69
2022/08/22 12:00:22;;;;;;;7.43;1.85;;;20.60;99.90;;;;;;5053761;28;20380;-73
2022/08/22 12:03:04;;;;;;;3.15;0.70;;;20.50;99.90;;;;;;5065088;28;20130;-69
2022/08/22 12:05:53;;;;;;;3.08;0.82;;;20.50;99.90;;;;;;5064246;28;20048;-72
2022/08/22 12:08:32;;;;;;;5.43;0.88;;;20.40;99.90;;;;;;5057958;28;20074;-69
2022/08/22 12:11:13;;;;;;;4.20;1.20;;;20.30;99.90;;;;;;5062760;28;20441;-72
2022/08/22 12:13:48;;;;;;;3.55;0.93;;;20.40;99.90;;;;;;5064883;28;20052;-69
2022/08/22 12:16:31;;;;;;;1.55;0.75;;;20.60;99.90;;;;;;5059898;28;20121;-69
2022/08/22 12:19:27;;;;;;;2.70;0.80;;;20.80;99.90;;;;;;5064368;28;20059;-72
2022/08/22 12:21:58;;;;;;;2.10;0.90;;;21.00;99.90;;;;;;5058248;28;20072;-73
2022/08/22 12:24:33;;;;;;;3.50;1.45;;;21.30;99.90;;;;;;5063924;28;20052;-73
2022/08/22 12:27:10;;;;;;;3.75;1.55;;;21.30;99.90;;;;;;5066819;28;20386;-70
2022/08/22 12:29:37;;;;;;;4.00;1.05;;;21.40;99.90;;;;;;5061487;28;20087;-72
2022/08/22 12:32:19;;;;;;;5.18;1.35;;;21.30;99.90;;;;;;5062344;28;20045;-71
2022/08/22 12:35:05;;;;;;;5.88;3.05;;;21.10;99.90;;;;;;5064043;28;20462;-73
2022/08/22 12:37:48;;;;;;;5.47;1.35;;;21.00;99.90;;;;;;5064377;28;20135;-71
2022/08/22 12:41:13;;;;;;;6.68;2.50;;;20.80;99.90;;;;;;5061610;28;20040;-69
2022/08/22 12:44:20;;;;;;;3.25;0.88;;;21.00;99.90;;;;;;5061998;28;20032;-70
2022/08/22 12:47:24;;;;;;;2.42;1.35;;;21.00;99.90;;;;;;5061607;28;20044;-69
2022/08/22 12:50:06;;;;;;;4.45;1.17;;;21.20;99.90;;;;;;5062985;28;20044;-69
2022/08/22 12:52:35;;;;;;;6.18;1.17;;;21.20;99.90;;;;;;5062051;28;20537;-70
2022/08/22 12:55:50;;;;;;;1.10;0.70;;;20.90;99.90;;;;;;5062700;28;20048;-71
2022/08/22 12:58:51;;;;;;;4.20;1.30;;;21.30;99.90;;;;;;5060044;28;20726;-69
2022/08/22 13:01:22;;;;;;;6.43;0.95;;;21.40;99.90;;;;;;5060052;28;20056;-69
2022/08/22 13:04:05;;;;;;;4.30;1.17;;;21.30;99.90;;;;;;5061797;28;20036;-69
2022/08/22 13:06:34;;;;;;;7.55;1.77;;;21.10;99.90;;;;;;5060986;28;20036;-73
2022/08/22 13:09:14;;;;;;;3.60;0.90;;;21.20;99.90;;;;;;5063735;28;20095;-72
2022/08/22 13:11:43;;;;;;;4.90;1.38;;;21.30;99.90;;;;;;5063456;28;20064;-69
2022/08/22 13:14:17;;;;;;;4.15;0.80;;;21.40;99.90;;;;;;5060004;28;20032;-68
2022/08/22 13:16:56;;;;;;;4.07;2.78;;;21.00;99.90;;;;;;5063965;28;20072;-70
2022/08/22 13:19:28;;;;;;;4.30;1.77;;;20.90;99.90;;;;;;5062454;28;20055;-70
2022/08/22 13:22:00;;;;;;;4.57;0.98;;;21.00;99.90;;;;;;5060863;28;20512;-70
2022/08/22 13:24:36;;;;;;;5.38;1.20;;;21.00;99.90;;;;;;5061424;28;20107;-73
2022/08/22 13:27:17;;;;;;;2.60;0.88;;;21.30;99.90;;;;;;5063434;28;20037;-68
2022/08/22 13:29:55;;;;;;;1.15;1.02;;;21.40;99.90;;;;;;5061231;28;20067;-71
2022/08/22 13:32:38;;;;;;;9.65;1.52;;;21.40;99.90;;;;;;5061591;28;20048;-69
2022/08/22 13:35:20;;;;;;;2.95;0.85;;;20.90;99.90;;;;;;5062502;28;20575;-70
2022/08/22 13:37:57;;;;;;;;;;;20.80;99.90;;;;;;5061058;28;20075;-72
2022/08/22 13:40:30;;;;;;;4.85;1.17;;;21.10;99.90;;;;;;5060084;28;19925;-68
2022/08/22 13:43:24;;;;;;;3.38;0.90;;;20.80;99.90;;;;;;5063791;28;20072;-72
2022/08/22 13:46:01;;;;;;;10.40;2.53;;;20.80;99.90;;;;;;5057772;28;20069;-68
2022/08/22 13:48:51;;;;;;;5.78;0.85;;;21.00;99.90;;;;;;5061991;28;20055;-72
2022/08/22 13:51:33;;;;;;;2.70;1.25;;;21.20;99.90;;;;;;5059676;28;20087;-70
2022/08/22 13:54:09;;;;;;;7.15;1.58;;;21.20;99.90;;;;;;5064958;28;20036;-69
2022/08/22 13:57:03;;;;;;;2.78;1.10;;;21.20;99.90;;;;;;5066810;28;20056;-69
2022/08/22 13:59:43;;;;;;;4.07;1.20;;;21.30;99.90;;;;;;5062750;28;20076;-70
2022/08/22 14:02:35;;;;;;;2.70;1.35;;;21.20;99.90;;;;;;5063137;28;20052;-69
2022/08/22 14:05:10;;;;;;;2.75;0.85;;;21.20;99.90;;;;;;5067291;28;20046;-70
2022/08/22 14:08:06;;;;;;;5.10;1.48;;;21.50;99.90;;;;;;5063706;28;20078;-70
2022/08/22 14:10:48;;;;;;;2.80;1.25;;;21.60;99.90;;;;;;5064279;28;20141;-72
2022/08/22 14:13:41;;;;;;;1.80;0.68;;;21.80;99.90;;;;;;5078738;28;20055;-72
2022/08/22 14:16:32;;;;;;;4.65;1.02;;;21.80;99.90;;;;;;5080074;28;20159;-71
2022/08/22 14:19:11;;;;;;;5.00;0.90;;;21.40;99.90;;;;;;5086054;28;20445;-70